createdAt,value
2022-08-18T00:00:13.729Z,47.90
2022-08-18T00:02:46.509Z,48.10
2022-08-18T00:05:34.468Z,48.50
2022-08-18T00:08:06.219Z,48.80
2022-08-18T00:10:40.525Z,49.20
2022-08-18T00:13:21.504Z,49.50
2022-08-18T00:15:48.888Z,49.70
2022-08-18T00:18:23.524Z,49.90
2022-08-18T00:20:51.000Z,50.00
2022-08-18T00:23:25.474Z,50.10
2022-08-18T00:25:52.868Z,50.20
2022-08-18T00:28:26.454Z,50.40
2022-08-18T00:30:53.876Z,50.50
2022-08-18T00:33:27.442Z,50.50
2022-08-18T00:35:54.469Z,50.50
2022-08-18T00:38:28.478Z,50.50
2022-08-18T00:40:56.182Z,50.40
2022-08-18T00:43:47.490Z,50.40
2022-08-18T00:46:15.778Z,50.40
2022-08-18T00:48:49.609Z,50.40
2022-08-18T00:51:24.479Z,50.30
2022-08-18T00:54:22.474Z,50.20
2022-08-18T00:56:50.869Z,49.90
2022-08-18T00:59:27.508Z,49.70
2022-08-18T01:02:03.493Z,49.60
2022-08-18T01:04:42.143Z,49.50
2022-08-18T01:07:12.593Z,49.50
2022-08-18T01:09:46.493Z,49.50
2022-08-18T01:12:45.873Z,49.50
2022-08-18T01:15:27.939Z,49.60
2022-08-18T01:18:16.629Z,49.70
2022-08-18T01:21:09.499Z,49.80
2022-08-18T01:23:43.485Z,50.00
2022-08-18T01:26:11.000Z,50.30
2022-08-18T01:28:45.518Z,50.40
2022-08-18T01:31:20.505Z,50.50
2022-08-18T01:33:53.492Z,50.60
2022-08-18T01:36:21.874Z,50.60
2022-08-18T01:38:57.528Z,50.70
2022-08-18T01:41:32.580Z,50.70
2022-08-18T01:44:06.514Z,50.70
2022-08-18T01:46:40.468Z,50.50
2022-08-18T01:49:08.627Z,50.40
2022-08-18T01:51:44.514Z,50.40
2022-08-18T01:54:13.549Z,50.40
2022-08-18T01:56:49.540Z,50.40
2022-08-18T01:59:16.542Z,50.40
2022-08-18T02:01:53.318Z,50.50
2022-08-18T02:04:39.003Z,50.50
2022-08-18T02:07:14.513Z,50.70
2022-08-18T02:09:51.080Z,50.80
2022-08-18T02:12:31.484Z,50.90
2022-08-18T02:15:05.345Z,50.90
2022-08-18T02:17:43.518Z,51.00
2022-08-18T02:20:12.278Z,51.10
2022-08-18T02:22:47.519Z,51.20
2022-08-18T02:25:15.338Z,51.40
2022-08-18T02:27:48.638Z,51.50
2022-08-18T02:30:18.013Z,51.50
2022-08-18T02:32:51.494Z,51.60
2022-08-18T02:35:18.523Z,51.70
2022-08-18T02:37:54.824Z,51.70
2022-08-18T02:40:21.936Z,51.80
2022-08-18T02:42:56.493Z,51.80
2022-08-18T02:45:24.111Z,51.80
2022-08-18T02:48:01.553Z,52.20
2022-08-18T02:50:28.527Z,52.70
2022-08-18T02:53:01.534Z,53.30
2022-08-18T02:55:29.532Z,53.90
2022-08-18T02:58:02.513Z,54.50
2022-08-18T03:00:35.533Z,55.00
2022-08-18T03:03:09.490Z,55.30
2022-08-18T03:05:36.458Z,55.60
2022-08-18T03:08:10.532Z,55.70
2022-08-18T03:10:43.723Z,55.80
2022-08-18T03:13:23.537Z,55.80
2022-08-18T03:15:54.752Z,55.90
2022-08-18T03:18:30.550Z,55.90
2022-08-18T03:20:58.923Z,56.00
2022-08-18T03:23:34.540Z,56.10
2022-08-18T03:26:08.563Z,56.20
2022-08-18T03:28:35.573Z,56.30
2022-08-18T03:31:08.543Z,56.40
2022-08-18T03:33:35.827Z,56.70
2022-08-18T03:36:17.533Z,56.90
2022-08-18T03:38:52.570Z,57.10
2022-08-18T03:41:43.707Z,57.20
2022-08-18T03:44:16.487Z,57.20
2022-08-18T03:46:50.522Z,57.30
2022-08-18T03:49:18.348Z,57.50
2022-08-18T03:51:53.539Z,57.70
2022-08-18T03:54:20.398Z,57.70
2022-08-18T03:56:54.547Z,57.80
2022-08-18T03:59:23.007Z,57.80
2022-08-18T04:01:57.595Z,57.70
2022-08-18T04:04:32.562Z,57.80
2022-08-18T04:07:11.512Z,57.80
2022-08-18T04:09:38.805Z,57.80
2022-08-18T04:12:20.527Z,57.80
2022-08-18T04:15:00.512Z,57.80
2022-08-18T04:17:27.492Z,57.80
2022-08-18T04:20:01.573Z,57.90
2022-08-18T04:22:28.483Z,58.00
2022-08-18T04:25:02.548Z,58.00
2022-08-18T04:27:30.171Z,58.10
2022-08-18T04:30:00.306Z,58.10
2022-08-18T04:32:33.575Z,58.20
2022-08-18T04:35:02.913Z,58.30
2022-08-18T04:37:39.742Z,58.40
2022-08-18T04:40:09.431Z,58.50
2022-08-18T04:42:43.242Z,58.60
2022-08-18T04:45:17.542Z,58.60
2022-08-18T04:47:44.848Z,58.60
2022-08-18T04:50:19.562Z,58.70
2022-08-18T04:53:05.027Z,58.70
2022-08-18T04:55:38.564Z,58.90
2022-08-18T04:58:05.553Z,58.90
2022-08-18T05:00:32.447Z,58.90
2022-08-18T05:03:05.563Z,58.90
2022-08-18T05:05:38.578Z,58.90
2022-08-18T05:08:05.842Z,59.00
2022-08-18T05:10:49.591Z,59.00
2022-08-18T05:13:30.544Z,59.00
2022-08-18T05:16:13.292Z,59.10
2022-08-18T05:18:45.387Z,59.20
2022-08-18T05:21:20.552Z,59.20
2022-08-18T05:23:48.767Z,59.20
2022-08-18T05:26:16.700Z,59.30
2022-08-18T05:28:57.995Z,59.40
2022-08-18T05:31:38.452Z,59.40
2022-08-18T05:34:12.528Z,59.50
2022-08-18T05:36:55.591Z,59.50
2022-08-18T05:39:30.601Z,59.50
2022-08-18T05:42:12.562Z,59.50
2022-08-18T05:44:47.622Z,59.50
2022-08-18T05:47:27.594Z,59.60
2022-08-18T05:49:55.958Z,59.50
2022-08-18T05:52:32.602Z,59.60
2022-08-18T05:55:38.557Z,59.70
2022-08-18T05:58:16.596Z,59.60
2022-08-18T06:00:57.399Z,59.70
2022-08-18T06:03:45.263Z,59.60
2022-08-18T06:06:34.158Z,59.80
2022-08-18T06:09:23.580Z,59.80
2022-08-18T06:12:04.548Z,59.90
2022-08-18T06:14:38.989Z,60.00
2022-08-18T06:17:24.583Z,60.00
2022-08-18T06:20:03.482Z,59.90
2022-08-18T06:22:52.362Z,59.90
2022-08-18T06:25:23.643Z,59.90
2022-08-18T06:28:23.607Z,60.00
2022-08-18T06:31:03.083Z,60.00
2022-08-18T06:33:42.597Z,60.00
2022-08-18T06:36:38.624Z,60.00
2022-08-18T06:39:14.582Z,60.00
2022-08-18T06:41:56.597Z,59.90
2022-08-18T06:44:23.461Z,60.00
2022-08-18T06:47:10.617Z,59.90
2022-08-18T06:49:50.578Z,59.80
2022-08-18T06:52:20.515Z,59.70
2022-08-18T06:54:54.593Z,59.80
2022-08-18T06:57:30.002Z,59.60
2022-08-18T07:00:06.613Z,59.50
2022-08-18T07:02:50.624Z,59.40
2022-08-18T07:05:20.634Z,59.30
2022-08-18T07:08:08.592Z,59.10
2022-08-18T07:10:43.727Z,59.10
2022-08-18T07:13:25.617Z,59.10
2022-08-18T07:15:54.069Z,58.90
2022-08-18T07:18:31.602Z,58.90
2022-08-18T07:21:01.969Z,58.70
2022-08-18T07:24:02.018Z,58.70
2022-08-18T07:26:53.456Z,58.60
2022-08-18T07:29:26.589Z,58.40
2022-08-18T07:32:01.643Z,58.20
2022-08-18T07:34:28.538Z,57.90
2022-08-18T07:37:07.621Z,57.90
2022-08-18T07:39:50.591Z,57.90
2022-08-18T07:42:56.766Z,57.90
2022-08-18T07:45:36.597Z,57.90
2022-08-18T07:48:36.964Z,57.60
2022-08-18T07:51:15.194Z,57.50
2022-08-18T07:53:44.222Z,57.40
2022-08-18T07:56:49.598Z,57.40
2022-08-18T07:59:21.972Z,57.40
2022-08-18T08:01:58.638Z,57.40
2022-08-18T08:04:43.196Z,57.30
2022-08-18T08:07:25.208Z,57.40
2022-08-18T08:10:31.597Z,57.30
2022-08-18T08:13:26.023Z,57.10
2022-08-18T08:16:32.606Z,57.00
2022-08-18T08:19:12.826Z,57.00
2022-08-18T08:21:52.660Z,56.90
2022-08-18T08:24:33.747Z,56.90
2022-08-18T08:27:10.625Z,57.10
2022-08-18T08:29:37.509Z,57.00
2022-08-18T08:32:12.653Z,56.80
2022-08-18T08:34:45.902Z,56.80
2022-08-18T08:37:22.622Z,56.80
2022-08-18T08:39:58.279Z,56.70
2022-08-18T08:42:47.642Z,56.60
2022-08-18T08:45:30.676Z,56.80
2022-08-18T08:48:14.667Z,56.90
2022-08-18T08:50:51.692Z,57.00
2022-08-18T08:53:28.599Z,57.10
2022-08-18T08:56:01.700Z,56.90
2022-08-18T08:58:54.627Z,56.80
2022-08-18T09:01:43.651Z,56.60
2022-08-18T09:04:36.653Z,56.60
2022-08-18T09:07:19.647Z,56.40
2022-08-18T09:09:58.760Z,56.20
2022-08-18T09:12:49.648Z,55.90
2022-08-18T09:15:42.768Z,55.80
2022-08-18T09:18:29.660Z,55.40
2022-08-18T09:21:17.722Z,54.80
2022-08-18T09:23:52.652Z,54.90
2022-08-18T09:26:47.638Z,55.00
2022-08-18T09:29:24.578Z,55.00
2022-08-18T09:32:16.671Z,55.00
2022-08-18T09:35:09.612Z,54.60
2022-08-18T09:38:14.128Z,54.20
2022-08-18T09:41:23.672Z,53.90
2022-08-18T09:44:17.916Z,53.00
2022-08-18T09:47:00.662Z,52.40
2022-08-18T09:49:28.261Z,51.60
2022-08-18T09:52:26.649Z,51.30
2022-08-18T09:54:59.669Z,50.80
2022-08-18T09:57:28.032Z,49.90
2022-08-18T10:00:05.689Z,49.30
2022-08-18T10:02:32.654Z,48.80
2022-08-18T10:05:27.674Z,48.70
2022-08-18T10:08:07.316Z,47.70
2022-08-18T10:11:01.118Z,47.40
2022-08-18T10:13:57.645Z,46.80
2022-08-18T10:16:57.634Z,46.30
2022-08-18T10:19:39.915Z,46.10
2022-08-18T10:22:15.930Z,46.40
2022-08-18T10:27:58.705Z,46.20
2022-08-18T10:30:56.961Z,46.00
2022-08-18T10:33:57.710Z,45.60
2022-08-18T10:36:38.645Z,45.20
2022-08-18T10:39:17.675Z,44.90
2022-08-18T10:42:03.429Z,44.50
2022-08-18T10:44:38.665Z,44.30
2022-08-18T10:47:12.256Z,44.00
2022-08-18T10:49:46.758Z,43.70
2022-08-18T10:52:16.932Z,43.50
2022-08-18T10:55:10.177Z,43.00
2022-08-18T10:58:02.700Z,42.90
2022-08-18T11:00:58.741Z,42.60
2022-08-18T11:03:51.114Z,42.50
2022-08-18T11:06:26.734Z,42.20
2022-08-18T11:08:58.481Z,41.80
2022-08-18T11:14:31.485Z,41.20
2022-08-18T11:17:26.701Z,41.20
2022-08-18T11:19:54.100Z,41.10
2022-08-18T11:22:34.167Z,40.90
2022-08-18T11:25:03.289Z,40.70
2022-08-18T11:27:40.842Z,40.60
2022-08-18T11:30:12.148Z,40.50
2022-08-18T11:35:45.584Z,40.60
2022-08-18T11:44:09.731Z,40.30
2022-08-18T11:46:42.838Z,40.20
2022-08-18T11:49:24.092Z,40.20
2022-08-18T11:52:07.733Z,40.00
2022-08-18T11:54:38.573Z,39.60
2022-08-18T11:57:30.743Z,39.20
2022-08-18T12:00:00.197Z,38.70
2022-08-18T12:02:28.448Z,38.90
2022-08-18T12:05:10.678Z,38.70
2022-08-18T12:07:57.411Z,38.20
2022-08-18T12:10:34.700Z,38.00
2022-08-18T12:13:16.482Z,37.80
2022-08-18T12:15:50.755Z,37.60
2022-08-18T12:18:26.374Z,37.40
2022-08-18T12:21:08.717Z,37.40
2022-08-18T12:23:49.454Z,37.30
2022-08-18T12:26:37.756Z,37.40
2022-08-18T12:32:00.672Z,37.20
2022-08-18T12:34:28.667Z,37.00
2022-08-18T12:37:34.079Z,36.70
2022-08-18T12:39:56.003Z,36.30
2022-08-18T12:42:31.720Z,36.00
2022-08-18T12:45:05.769Z,35.80
2022-08-18T12:47:44.702Z,35.70
2022-08-18T12:50:19.754Z,35.70
2022-08-18T12:52:54.079Z,35.80
2022-08-18T12:55:23.202Z,36.00
2022-08-18T12:57:56.763Z,36.90
2022-08-18T13:00:31.767Z,37.40
2022-08-18T13:02:59.485Z,37.80
2022-08-18T13:05:34.783Z,37.90
2022-08-18T13:08:05.051Z,37.70
2022-08-18T13:10:45.344Z,37.70
2022-08-18T13:13:33.823Z,37.80
2022-08-18T13:16:03.320Z,37.50
2022-08-18T13:18:37.728Z,37.30
2022-08-18T13:21:07.176Z,37.10
2022-08-18T13:23:40.752Z,37.10
2022-08-18T13:26:09.597Z,37.40
2022-08-18T13:28:52.852Z,37.60
2022-08-18T13:31:26.242Z,37.60
2022-08-18T13:34:04.142Z,37.60
2022-08-18T13:36:45.970Z,37.60
2022-08-18T13:39:20.788Z,37.80
2022-08-18T13:41:49.702Z,38.00
2022-08-18T13:44:25.717Z,38.30
2022-08-18T13:46:55.980Z,38.50
2022-08-18T13:49:30.797Z,38.50
2022-08-18T13:52:00.883Z,38.30
2022-08-18T13:54:39.778Z,38.30
2022-08-18T13:57:07.367Z,38.40
2022-08-18T13:59:46.644Z,38.60
2022-08-18T14:02:13.860Z,39.00
2022-08-18T14:04:47.800Z,39.20
2022-08-18T14:07:24.676Z,39.60
2022-08-18T14:10:03.619Z,40.20
2022-08-18T14:12:53.347Z,40.50
2022-08-18T14:15:27.788Z,41.00
2022-08-18T14:17:55.214Z,41.40
2022-08-18T14:20:50.801Z,41.70
2022-08-18T14:23:43.833Z,42.00
2022-08-18T14:26:45.787Z,42.40
2022-08-18T14:29:46.218Z,42.60
2022-08-18T14:32:17.812Z,42.90
2022-08-18T14:34:58.510Z,43.30
2022-08-18T14:37:34.800Z,43.50
2022-08-18T14:40:02.473Z,43.70
2022-08-18T14:42:41.960Z,44.00
2022-08-18T14:45:31.341Z,44.30
2022-08-18T14:48:11.082Z,44.60
2022-08-18T14:50:49.146Z,45.00
2022-08-18T14:53:17.577Z,45.00
2022-08-18T14:56:01.400Z,45.60
2022-08-18T14:59:18.494Z,48.00
2022-08-18T15:01:42.607Z,53.00
2022-08-18T15:04:30.892Z,55.40
2022-08-18T15:07:04.966Z,58.60
2022-08-18T15:09:37.490Z,61.20
2022-08-18T15:12:11.956Z,63.60
2022-08-18T15:14:42.007Z,67.30
2022-08-18T15:17:16.943Z,68.40
2022-08-18T15:20:01.576Z,68.70
2022-08-18T15:22:54.034Z,69.60
2022-08-18T15:25:39.789Z,70.70
2022-08-18T15:28:16.412Z,71.00
2022-08-18T15:30:50.994Z,71.80
2022-08-18T15:33:31.568Z,72.30
2022-08-18T15:36:16.114Z,72.70
2022-08-18T15:38:50.242Z,73.20
2022-08-18T15:41:43.918Z,73.20
2022-08-18T15:44:18.103Z,73.50
2022-08-18T15:46:51.207Z,73.70
2022-08-18T15:49:27.946Z,73.80
2022-08-18T15:52:01.146Z,74.00
2022-08-18T15:54:34.958Z,73.70
2022-08-18T15:57:02.057Z,72.90
2022-08-18T15:59:40.018Z,72.40
2022-08-18T16:02:11.916Z,72.80
2022-08-18T16:04:57.929Z,73.20
2022-08-18T16:07:41.286Z,73.90
2022-08-18T16:10:27.103Z,74.10
2022-08-18T16:13:01.851Z,74.40
2022-08-18T16:15:30.049Z,74.70
2022-08-18T16:18:05.023Z,74.80
2022-08-18T16:20:32.672Z,74.70
2022-08-18T16:23:07.006Z,74.50
2022-08-18T16:25:38.635Z,74.10
2022-08-18T16:28:13.126Z,74.00
2022-08-18T16:30:41.488Z,73.70
2022-08-18T16:33:16.022Z,73.60
2022-08-18T16:35:45.326Z,73.20
2022-08-18T16:38:18.957Z,72.40
2022-08-18T16:40:46.766Z,71.90
2022-08-18T16:43:22.085Z,72.10
2022-08-18T16:45:49.626Z,72.10
2022-08-18T16:48:23.915Z,72.10
2022-08-18T16:50:57.986Z,71.90
2022-08-18T16:53:40.287Z,71.90
2022-08-18T16:56:12.187Z,71.90
2022-08-18T16:59:07.139Z,71.90
2022-08-18T17:01:53.602Z,71.50
2022-08-18T17:04:29.064Z,70.90
2022-08-18T17:07:11.998Z,70.90
2022-08-18T17:09:39.687Z,70.90
2022-08-18T17:12:13.959Z,71.00
2022-08-18T17:14:50.546Z,70.40
2022-08-18T17:17:19.419Z,70.70
2022-08-18T17:19:54.199Z,70.80
2022-08-18T17:22:21.340Z,70.60
2022-08-18T17:24:55.180Z,70.50
2022-08-18T17:27:27.791Z,70.60
2022-08-18T17:30:26.221Z,70.60
2022-08-18T17:33:02.226Z,70.20
2022-08-18T17:35:39.972Z,70.10
2022-08-18T17:38:09.631Z,70.00
2022-08-18T17:40:50.040Z,69.70
2022-08-18T17:43:28.105Z,69.00
2022-08-18T17:46:18.791Z,69.10
2022-08-18T17:48:59.921Z,69.50
2022-08-18T17:51:46.271Z,69.70
2022-08-18T17:54:30.241Z,69.60
2022-08-18T17:57:12.541Z,69.50
2022-08-18T17:59:51.680Z,69.40
2022-08-18T18:02:29.410Z,69.50
2022-08-18T18:05:08.621Z,69.50
2022-08-18T18:07:52.353Z,69.30
2022-08-18T18:10:32.221Z,69.50
2022-08-18T18:13:09.203Z,69.50
2022-08-18T18:15:47.142Z,69.60
2022-08-18T18:18:29.942Z,69.70
2022-08-18T18:21:05.182Z,69.70
2022-08-18T18:23:38.822Z,69.70
2022-08-18T18:26:33.242Z,69.80
2022-08-18T18:29:20.727Z,69.80
2022-08-18T18:32:02.122Z,69.80
2022-08-18T18:34:47.082Z,69.60
2022-08-18T18:37:35.122Z,69.70
2022-08-18T18:40:04.241Z,69.60
2022-08-18T18:42:40.373Z,69.50
2022-08-18T18:45:10.052Z,69.40
2022-08-18T18:47:52.215Z,69.40
2022-08-18T18:50:55.748Z,69.50
2022-08-18T18:53:37.224Z,69.40
2022-08-18T18:56:19.236Z,69.50
2022-08-18T18:59:02.803Z,69.30
2022-08-18T19:01:42.466Z,69.30
2022-08-18T19:04:28.124Z,69.20
2022-08-18T19:07:06.123Z,68.90
2022-08-18T19:09:50.121Z,69.10
2022-08-18T19:12:30.148Z,69.20
2022-08-18T19:15:15.204Z,69.00
2022-08-18T19:17:42.506Z,69.10
2022-08-18T19:20:19.163Z,69.10
2022-08-18T19:23:31.535Z,69.30
2022-08-18T19:26:08.925Z,69.20
2022-08-18T19:29:12.014Z,69.50
2022-08-18T19:31:41.225Z,69.50
2022-08-18T19:34:16.163Z,69.40
2022-08-18T19:37:08.123Z,69.30
2022-08-18T19:39:44.504Z,69.20
2022-08-18T19:42:21.204Z,69.00
2022-08-18T19:45:15.278Z,69.10
2022-08-18T19:48:23.104Z,69.40
2022-08-18T19:51:10.465Z,69.80
2022-08-18T19:54:03.148Z,69.90
2022-08-18T19:56:43.809Z,69.50
2022-08-18T19:59:37.083Z,69.70
2022-08-18T20:02:23.123Z,70.00
2022-08-18T20:05:22.103Z,69.90
2022-08-18T20:08:14.243Z,69.40
2022-08-18T20:10:57.138Z,69.40
2022-08-18T20:13:45.203Z,69.40
2022-08-18T20:16:21.123Z,69.40
2022-08-18T20:18:55.994Z,69.80
2022-08-18T20:21:41.493Z,70.00
2022-08-18T20:24:18.943Z,70.50
2022-08-18T20:26:56.063Z,70.30
2022-08-18T20:29:36.663Z,70.10
2022-08-18T20:32:13.133Z,70.60
2022-08-18T20:34:47.139Z,70.70
2022-08-18T20:37:27.322Z,70.70
2022-08-18T20:40:02.344Z,70.80
2022-08-18T20:42:35.603Z,70.80
2022-08-18T20:45:17.248Z,70.60
2022-08-18T20:47:47.344Z,70.40
2022-08-18T20:50:29.243Z,70.10
2022-08-18T20:53:12.543Z,69.90
2022-08-18T20:55:59.044Z,69.90
2022-08-18T20:58:32.483Z,70.10
2022-08-18T21:01:08.172Z,70.30
2022-08-18T21:03:44.329Z,70.30
2022-08-18T21:06:25.081Z,70.50
2022-08-18T21:09:01.030Z,70.60
2022-08-18T21:11:43.661Z,70.50
2022-08-18T21:14:20.049Z,70.30
2022-08-18T21:16:54.323Z,70.40
2022-08-18T21:19:23.834Z,70.30
2022-08-18T21:22:04.936Z,70.50
2022-08-18T21:24:35.503Z,70.80
2022-08-18T21:27:11.073Z,70.90
2022-08-18T21:29:49.005Z,70.90
2022-08-18T21:32:36.039Z,70.80
2022-08-18T21:35:18.099Z,71.10
2022-08-18T21:38:02.048Z,71.20
2022-08-18T21:40:39.233Z,70.90
2022-08-18T21:43:14.164Z,70.70
2022-08-18T21:46:03.038Z,70.80
2022-08-18T21:48:30.562Z,70.70
2022-08-18T21:51:08.986Z,70.80
2022-08-18T21:53:38.592Z,70.80
2022-08-18T21:56:05.952Z,71.00
2022-08-18T21:58:45.948Z,71.40
2022-08-18T22:01:28.000Z,71.70
2022-08-18T22:04:11.160Z,71.70
2022-08-18T22:06:54.065Z,71.80
2022-08-18T22:09:42.487Z,71.80
2022-08-18T22:12:46.571Z,71.90
2022-08-18T22:15:18.916Z,71.80
2022-08-18T22:18:12.337Z,72.10
2022-08-18T22:20:55.278Z,72.30
2022-08-18T22:23:54.242Z,72.20
2022-08-18T22:26:23.304Z,72.40
2022-08-18T22:28:57.071Z,72.30
2022-08-18T22:31:33.208Z,72.30
2022-08-18T22:34:02.713Z,72.20
2022-08-18T22:36:39.045Z,72.30
2022-08-18T22:39:08.620Z,72.40
2022-08-18T22:41:42.989Z,72.40
2022-08-18T22:44:11.087Z,72.40
2022-08-18T22:46:38.640Z,72.20
2022-08-18T22:49:12.038Z,72.40
2022-08-18T22:51:46.279Z,72.60
2022-08-18T22:54:15.110Z,72.40
2022-08-18T22:56:53.820Z,72.40
2022-08-18T22:59:26.884Z,72.40
2022-08-18T23:02:01.111Z,72.40
2022-08-18T23:04:35.292Z,72.30
2022-08-18T23:07:09.571Z,72.20
2022-08-18T23:09:44.320Z,72.20
2022-08-18T23:12:14.150Z,72.10
2022-08-18T23:14:49.704Z,72.10
2022-08-18T23:17:16.845Z,72.10
2022-08-18T23:19:52.265Z,72.20
2022-08-18T23:22:20.112Z,72.30
2022-08-18T23:24:48.749Z,72.50
2022-08-18T23:27:22.971Z,72.40
2022-08-18T23:29:52.763Z,72.50
2022-08-18T23:32:31.831Z,72.40
2022-08-18T23:34:59.801Z,72.40
2022-08-18T23:37:34.131Z,72.30
2022-08-18T23:40:01.739Z,72.10
2022-08-18T23:42:35.121Z,72.10
2022-08-18T23:45:05.100Z,72.10
2022-08-18T23:47:32.330Z,72.00
2022-08-18T23:50:06.191Z,72.10
2022-08-18T23:52:40.782Z,72.20
2022-08-18T23:55:09.683Z,72.30
2022-08-18T23:57:37.290Z,72.30
